Latest Weather Observations for Cape Byron

IDN60801

Issued at 11:05 am EST Tuesday 30 August 2016 (issued every 30 minutes, with the page automatically refreshed every 10 minutes)

About weather observations | Map of weather stations | Latest weather observations for NSW | Other Formats
Station Details ID: 058216 Name: CAPE BYRON AWS Lat: -28.64 Lon: 153.64 Height: 95.0 m
Data from the previous 72 hours. | See also: Recent months at Cape Byron
Date/Time
EST
Temp
°C
App
Temp
°C
Dew
Point
°C
Rel
Hum
%
Delta-T
°C
Wind Press
QNH
hPa
Press
MSL
hPa
Rain since
9am
mm
Dir  Spd
km/h
Gust
km/h
Spd
kts
Gust
kts
30/11:00am 21.3 19.2 11.1 52 5.6 E 13 20 7 11 1029.3 1029.2 0.0
30/10:30am 21.2 19.3 11.8 55 5.2 E 13 19 7 10 1030.0 1029.9 0.0
30/10:00am 21.1 18.7 11.4 54 5.4 E 15 20 8 11 1030.0 1029.9 0.0
30/09:30am 20.8 18.8 11.4 55 5.2 E 13 20 7 11 1030.0 1029.9 0.0
30/09:00am 20.8 19.0 12.0 57 4.9 E 13 22 7 12 1029.6 1029.5 0.0
30/08:30am 20.7 19.8 14.8 69 3.5 E 13 17 7 9 1029.8 1029.7 0.0
30/08:00am 19.9 19.3 14.7 72 3.0 ENE 11 15 6 8 1029.7 1029.6 0.0
30/07:30am 18.3 18.1 14.6 79 2.1 ENE 9 13 5 7 1029.1 1028.9 0.0
30/07:00am 17.7 18.5 13.8 78 2.2 ESE 2 7 1 4 1028.5 1028.3 0.0
30/06:30am 17.0 17.0 13.5 80 2.0 NNW 6 11 3 6 1027.8 1027.6 0.0
30/06:00am 16.6 16.2 13.1 80 2.0 NW 7 9 4 5 1027.4 1027.2 0.0
30/05:30am 16.8 16.5 13.3 80 2.0 N 7 11 4 6 1026.9 1026.7 0.0
30/05:00am 16.6 16.4 13.1 80 2.0 NW 6 7 3 4 1026.6 1026.5 0.0
30/04:30am 16.7 16.1 13.4 81 1.9 N 9 11 5 6 1026.2 1026.1 0.0
30/04:00am 16.7 16.1 13.4 81 1.9 N 9 13 5 7 1025.8 1025.7 0.0
30/03:30am 16.8 16.2 13.5 81 1.9 NNE 9 17 5 9 1025.8 1025.7 0.0
30/03:00am 17.3 15.9 13.4 78 2.2 NNE 13 19 7 10 1025.6 1025.5 0.0
30/02:30am 17.6 16.3 13.7 78 2.2 NNE 13 17 7 9 1025.5 1025.4 0.0
30/02:00am 17.5 16.2 13.8 79 2.1 NNE 13 17 7 9 1025.7 1025.6 0.0
30/01:30am 17.8 17.0 13.9 78 2.2 NNE 11 17 6 9 1026.0 1025.9 0.0
30/01:00am 17.3 16.9 14.2 82 1.8 NNW 9 15 5 8 1026.4 1026.3 0.0
30/12:30am 17.4 16.7 14.3 82 1.8 N 11 17 6 9 1026.5 1026.4 0.0
30/12:00am 17.1 16.5 14.6 85 1.4 NNW 11 15 6 8 1026.6 1026.5 0.0
 
Date/Time
EST
Temp
°C
App
Temp
°C
Dew
Point
°C
Rel
Hum
%
Delta-T
°C
Wind Press
QNH
hPa
Press
MSL
hPa
Rain since
9am
mm
Dir  Spd
km/h
Gust
km/h
Spd
kts
Gust
kts
29/11:30pm 17.2 16.9 14.3 83 1.7 N 9 15 5 8 1027.0 1026.8 0.0
29/11:00pm 17.6 17.1 13.7 78 2.2 N 9 15 5 8 1027.1 1026.9 0.0
29/10:30pm 18.3 16.2 12.3 68 3.3 NNE 15 22 8 12 1027.1 1026.9 0.0
29/10:00pm 18.4 16.0 12.6 69 3.2 NNE 17 24 9 13 1027.3 1027.1 0.0
29/09:30pm 18.3 15.8 12.3 68 3.3 NNE 17 22 9 12 1027.3 1027.1 0.0
29/09:00pm 18.4 16.4 12.6 69 3.2 NNE 15 22 8 12 1027.1 1026.9 0.0
29/08:30pm 18.5 16.1 13.8 74 2.7 NE 19 26 10 14 1027.3 1027.1 0.0
29/08:00pm 18.3 17.2 14.4 78 2.2 NNE 13 19 7 10 1027.4 1027.2 0.0
29/07:30pm 18.2 16.4 14.5 79 2.1 NE 17 22 9 12 1027.0 1026.8 0.0
29/07:00pm 18.2 16.9 14.7 80 2.0 NE 15 24 8 13 1026.9 1026.7 0.0
29/06:30pm 18.2 16.1 14.7 80 2.0 NE 19 24 10 13 1026.5 1026.4 0.0
29/06:00pm 18.0 15.9 14.7 81 1.9 NE 19 22 10 12 1026.0 1025.9 0.0
29/05:30pm 17.9 16.2 14.6 81 1.9 ENE 17 22 9 12 1025.8 1025.7 0.0
29/05:00pm 18.6 17.9 14.3 76 2.5 ENE 11 19 6 10 1025.7 1025.6 0.0
29/04:30pm 20.0 19.2 13.9 68 3.5 ENE 11 15 6 8 1025.6 1025.5 0.0
29/04:00pm 20.8 19.6 14.0 65 3.9 ENE 13 17 7 9 1025.2 1025.1 0.0
29/03:30pm 20.7 19.6 13.2 62 4.3 E 11 15 6 8 1025.2 1025.1 0.0
29/03:00pm 21.2 20.5 13.1 60 4.6 E 9 15 5 8 1025.2 1025.1 0.0
29/02:30pm 21.8 20.9 13.7 60 4.7 ENE 11 15 6 8 1025.1 1025.0 0.0
29/02:00pm 21.5 19.8 12.6 57 5.0 E 13 15 7 8 1025.2 1025.1 0.0
29/01:30pm 22.0 20.4 12.8 56 5.3 ENE 13 15 7 8 1025.2 1025.1 0.0
29/01:00pm 21.9 20.1 12.2 54 5.5 ENE 13 15 7 8 1025.3 1025.2 0.0
29/12:30pm 21.4 20.1 13.6 61 4.5 E 13 15 7 8 1025.7 1025.6 0.0
29/12:00pm 20.6 19.7 14.9 70 3.3 E 13 15 7 8 1026.1 1026.0 0.0
29/11:30am 20.2 19.5 14.3 69 3.4 SE 11 15 6 8 1026.3 1026.2 0.0
29/11:00am 19.4 19.2 14.6 74 2.8 S 9 13 5 7 1026.6 1026.5 0.0
29/10:30am 18.6 17.5 13.2 71 3.1 S 11 13 6 7 1026.6 1026.5 0.0
29/10:00am 18.4 16.9 13.1 71 3.0 SW 13 19 7 10 1026.7 1026.6 0.0
29/09:30am 17.3 15.3 12.6 74 2.6 WSW 15 22 8 12 1026.7 1026.6 0.0
29/09:00am 16.2 13.5 11.8 75 2.4 SW 17 20 9 11 1026.5 1026.4 0.0
29/08:30am 15.5 12.7 11.5 77 2.2 WSW 17 20 9 11 1026.5 1026.4 0.0
29/08:00am 14.7 12.3 11.5 81 1.7 WSW 15 19 8 10 1026.1 1026.0 0.0
29/07:30am 13.8 12.1 11.3 85 1.3 SW 11 15 6 8 1025.8 1025.7 0.0
29/07:00am 14.3 13.2 12.0 86 1.2 SW 9 13 5 7 1025.2 1025.1 0.0
29/06:30am 14.8 14.4 12.3 85 1.4 NW 6 7 3 4 1024.9 1024.8 0.0
29/06:00am 14.9 15.3 12.4 85 1.4 NW 2 7 1 4 1024.3 1024.2 0.0
29/05:30am 14.9 14.4 12.6 86 1.3 NNW 7 11 4 6 1023.9 1023.8 0.0
29/05:00am 14.5 14.5 12.4 87 1.1 NW 4 7 2 4 1023.7 1023.6 0.0
29/04:30am 14.6 13.7 12.6 88 1.1 NNW 9 15 5 8 1023.3 1023.2 0.0
29/04:00am 14.1 13.2 12.5 90 0.9 NNW 9 13 5 7 1023.1 1023.0 0.0
29/03:30am 13.7 12.6 12.1 90 0.9 NW 9 11 5 6 1023.1 1023.0 0.0
29/03:00am 14.0 13.5 12.2 89 1.0 NW 6 9 3 5 1023.0 1022.9 0.0
29/02:30am 14.1 13.7 12.3 89 1.0 NNW 6 9 3 5 1023.2 1023.1 0.0
29/02:00am 14.2 13.8 12.4 89 1.0 WNW 6 11 3 6 1023.4 1023.3 0.0
29/01:30am 14.2 13.9 12.8 91 0.8 NNW 6 9 3 5 1023.4 1023.3 0.0
29/01:00am 14.0 13.5 12.7 92 0.7 NW 7 9 4 5 1023.4 1023.3 0.0
29/12:30am 13.8 13.3 12.5 92 0.7 NW 7 11 4 6 1023.4 1023.3 0.0
29/12:00am 13.7 13.2 12.6 93 0.6 NNW 7 11 4 6 1023.3 1023.2 0.0
 
Date/Time
EST
Temp
°C
App
Temp
°C
Dew
Point
°C
Rel
Hum
%
Delta-T
°C
Wind Press
QNH
hPa
Press
MSL
hPa
Rain since
9am
mm
Dir  Spd
km/h
Gust
km/h
Spd
kts
Gust
kts
28/11:30pm 13.2 12.1 12.1 93 0.6 NW 9 13 5 7 1023.2 1023.1 0.0
28/11:00pm 13.5 12.5 12.4 93 0.6 NW 9 13 5 7 1023.3 1023.2 0.0
28/10:30pm 13.7 12.4 12.6 93 0.6 NW 11 15 6 8 1023.3 1023.2 0.0
28/10:00pm 13.9 12.6 12.5 91 0.8 NW 11 15 6 8 1023.4 1023.3 0.0
28/09:30pm 14.6 13.3 12.5 87 1.2 NW 11 15 6 8 1023.4 1023.3 0.0
28/09:00pm 15.7 14.3 12.3 80 1.9 NW 11 13 6 7 1023.3 1023.2 0.0
28/08:30pm 17.7 15.3 11.3 66 3.5 NNE 15 19 8 10 1023.2 1023.1 0.0
28/08:00pm 17.6 15.3 11.6 68 3.3 NE 15 20 8 11 1023.1 1023.0 0.0
28/07:30pm 17.5 15.6 11.8 69 3.1 NE 13 17 7 9 1022.9 1022.8 0.0
28/07:00pm 17.3 15.0 11.8 70 3.0 NE 15 19 8 10 1022.8 1022.7 0.0
28/06:30pm 16.7 14.6 12.5 76 2.3 ENE 15 17 8 9 1022.5 1022.4 0.0
28/06:00pm 17.0 15.2 12.1 73 2.7 ENE 13 17 7 9 1022.4 1022.3 0.0
28/05:30pm 17.3 15.7 11.6 69 3.1 ENE 11 17 6 9 1022.1 1022.0 0.0
28/05:00pm 18.1 16.9 11.7 66 3.5 E 9 13 5 7 1022.1 1022.0 0.0
28/04:30pm 19.2 17.6 11.5 61 4.2 E 11 15 6 8 1021.6 1021.5 0.0
28/04:00pm 19.9 17.6 11.9 60 4.4 E 15 20 8 11 1021.3 1021.2 0.0
28/03:30pm 19.7 16.5 11.2 58 4.7 E 19 22 10 12 1021.2 1021.1 0.0
28/03:00pm 19.8 16.7 11.6 59 4.5 E 19 24 10 13 1021.3 1021.2 0.0
28/02:30pm 20.2 17.5 11.7 58 4.7 E 17 22 9 12 1021.4 1021.3 0.0
28/02:00pm 20.2 17.6 11.9 59 4.6 E 17 20 9 11 1021.6 1021.5 0.0
28/01:30pm 20.2 17.4 11.4 57 4.9 ESE 17 19 9 10 1021.8 1021.7 0.0
28/01:00pm 20.1 17.4 10.5 54 5.2 SE 15 19 8 10 1022.2 1022.1 0.0
28/12:30pm 19.9 18.0 10.6 55 5.1 SSE 11 15 6 8 1022.6 1022.5 0.0
28/12:00pm 19.8 17.7 11.0 57 4.8 SSE 13 17 7 9 1023.0 1022.9 0.0
28/11:30am 18.9 16.1 9.9 56 4.8 S 15 20 8 11 1023.5 1023.4 0.0
28/11:00am 18.9 15.9 10.7 59 4.4 SSW 17 24 9 13 1023.8 1023.7 0.0
28/10:30am 18.3 14.7 10.4 60 4.2 SSW 20 28 11 15 1023.9 1023.8 0.0
28/10:00am 17.6 14.0 9.8 60 4.1 SW 19 28 10 15 1024.0 1023.9 0.0
28/09:30am 16.7 13.0 9.4 62 3.8 SW 19 28 10 15 1024.2 1024.1 0.0
28/09:00am 15.6 10.5 9.1 65 3.3 SW 26 33 14 18 1024.1 1024.0 0.2
28/08:30am 14.5 8.2 9.1 70 2.8 SW 32 44 17 24 1024.0 1023.9 0.2
28/08:00am 13.7 7.3 8.7 72 2.5 WSW 32 39 17 21 1023.8 1023.7 0.2
28/07:30am 13.0 7.0 8.5 74 2.3 WSW 30 41 16 22 1023.5 1023.4 0.2
28/07:00am 12.5 6.5 8.6 77 1.9 SW 30 37 16 20 1022.9 1022.8 0.2
28/06:30am 12.2 5.7 8.3 77 1.9 WSW 32 39 17 21 1022.5 1022.4 0.2
28/06:00am 11.9 5.8 8.2 78 1.8 WSW 30 39 16 21 1022.3 1022.2 0.2
28/05:30am 12.1 5.5 8.4 78 1.8 WSW 33 43 18 23 1022.0 1021.9 0.2
28/05:00am 12.2 5.7 8.3 77 1.9 WSW 32 39 17 21 1021.6 1021.5 0.2
28/04:30am 12.0 5.4 8.5 79 1.7 WSW 33 41 18 22 1021.4 1021.3 0.2
28/04:00am 12.1 5.7 8.4 78 1.8 WSW 32 39 17 21 1021.4 1021.3 0.2
28/03:30am 12.2 5.7 8.3 77 1.9 WSW 32 41 17 22 1021.1 1021.0 0.2
28/03:00am 12.3 6.6 8.4 77 1.9 WSW 28 37 15 20 1021.2 1021.1 0.2
28/02:30am 12.5 5.5 8.4 76 2.0 WSW 35 41 19 22 1021.3 1021.2 0.2
28/02:00am 12.6 5.7 8.9 78 1.9 WSW 35 46 19 25 1021.4 1021.3 0.2
28/01:30am 12.5 5.7 9.1 80 1.7 WSW 35 44 19 24 1021.4 1021.3 0.2
28/01:00am 12.8 6.6 9.3 79 1.8 WSW 32 41 17 22 1021.3 1021.2 0.2
28/12:30am 12.9 6.7 9.2 78 1.9 WSW 32 39 17 21 1021.4 1021.3 0.2
28/12:00am 13.2 7.1 9.6 79 1.8 WSW 32 39 17 21 1021.5 1021.4 0.2
 
Date/Time
EST
Temp
°C
App
Temp
°C
Dew
Point
°C
Rel
Hum
%
Delta-T
°C
Wind Press
QNH
hPa
Press
MSL
hPa
Rain since
9am
mm
Dir  Spd
km/h
Gust
km/h
Spd
kts
Gust
kts
27/11:30pm 13.1 8.2 9.9 81 1.7 SW 26 32 14 17 1021.7 1021.6 0.2
27/11:00pm 13.0 9.0 10.4 84 1.3 SW 22 28 12 15 1021.7 1021.6 0.2
27/10:30pm 13.7 9.3 10.3 80 1.8 SW 24 30 13 16 1021.8 1021.7 0.0
27/10:00pm 14.4 9.6 10.2 76 2.2 SW 26 33 14 18 1021.7 1021.6 0.0
27/09:30pm 14.5 9.3 10.3 76 2.2 SW 28 39 15 21 1021.4 1021.3 0.0
27/09:00pm 14.5 8.7 10.7 78 2.0 SW 32 44 17 24 1021.4 1021.3 0.0
27/08:30pm 14.1 9.4 10.7 80 1.8 SW 26 35 14 19 1021.3 1021.2 0.0
27/08:00pm 13.9 9.0 10.1 78 2.0 SW 26 33 14 18 1021.1 1021.0 0.0
27/07:30pm 14.7 9.0 9.9 73 2.5 SW 30 43 16 23 1021.0 1020.9 0.0
27/07:00pm 14.9 9.4 9.3 69 2.9 SW 28 37 15 20 1020.7 1020.6 0.0
27/06:30pm 15.2 9.7 9.3 68 3.0 SW 28 39 15 21 1020.3 1020.1 0.0
27/06:00pm 15.7 9.4 9.1 65 3.4 SW 32 48 17 26 1019.8 1019.6 0.0
27/05:30pm 15.8 10.1 9.7 67 3.2 SSW 30 41 16 22 1019.6 1019.4 0.0
27/05:00pm 16.3 10.2 9.9 66 3.4 SSW 32 44 17 24 1019.4 1019.2 0.0
27/04:30pm 16.7 9.0 10.3 66 3.4 SSW 41 54 22 29 1018.8 1018.6 0.0
27/04:00pm 16.9 9.7 10.7 67 3.3 SSW 39 50 21 27 1018.7 1018.5 0.0
27/03:30pm 17.1 10.1 10.0 63 3.8 SSW 37 50 20 27 1018.7 1018.5 0.0
27/03:00pm 17.0 8.9 9.9 63 3.7 SSW 43 52 23 28 1018.6 1018.4 0.0
27/02:30pm 17.1 9.5 10.5 65 3.5 SSW 41 54 22 29 1018.5 1018.3 0.0
27/02:00pm 16.4 8.4 10.3 67 3.2 SSW 43 54 23 29 1018.6 1018.4 0.0
27/01:44pm 17.4 11.7 9.8 61 4.0 SSW 30 48 16 26 1018.7 1018.5 0.0
27/01:30pm 17.1 10.8 8.8 58 4.3 SSW 32 41 17 22 1018.5 1018.3 0.0
27/01:00pm 17.3 10.9 8.7 57 4.4 SSW 32 48 17 26 1018.6 1018.4 0.0
27/12:30pm 17.1 10.6 9.0 59 4.2 SSW 33 43 18 23 1018.8 1018.6 0.0
27/12:00pm 16.7 9.9 9.1 61 3.9 SSW 35 48 19 26 1019.2 1019.0 0.0
27/11:47am 16.0 8.5 9.4 65 3.4 SSW 39 48 21 26 1019.3 1019.1 0.0
27/11:30am 16.7 10.8 7.4 54 4.7 SW 28 39 15 21 1019.6 1019.4 0.0

Other Formats:

Comma delimited format used in spreadsheet applications
http://www.bom.gov.au/fwo/IDN60801/IDN60801.94599.axf

JavaScript Object Notation format (JSON) in row-major order
http://www.bom.gov.au/fwo/IDN60801/IDN60801.94599.json